createdAt,value
2018-10-19T00:01:50.041Z,83.67
2018-10-19T00:04:18.461Z,89.37
2018-10-19T00:06:46.821Z,81.73
2018-10-19T00:09:15.274Z,85.90
2018-10-19T00:11:43.552Z,84.87
2018-10-19T00:14:11.883Z,76.93
2018-10-19T00:16:40.260Z,94.13
2018-10-19T00:19:08.614Z,87.63
2018-10-19T00:21:37.022Z,81.73
2018-10-19T00:24:05.592Z,79.50
2018-10-19T00:26:34.055Z,83.23
2018-10-19T00:29:02.435Z,93.37
2018-10-19T00:31:30.784Z,82.93
2018-10-19T00:33:59.124Z,82.10
2018-10-19T00:36:27.489Z,81.20
2018-10-19T00:38:55.849Z,80.77
2018-10-19T00:41:24.205Z,78.07
2018-10-19T00:43:52.560Z,81.23
2018-10-19T00:46:20.898Z,81.57
2018-10-19T00:48:49.261Z,87.63
2018-10-19T00:51:17.750Z,83.10
2018-10-19T00:53:45.897Z,87.70
2018-10-19T00:56:14.236Z,90.00
2018-10-19T00:58:42.606Z,80.90
2018-10-19T01:01:10.944Z,92.80
2018-10-19T01:03:39.309Z,80.30
2018-10-19T01:06:07.635Z,97.63
2018-10-19T01:08:35.988Z,87.30
2018-10-19T01:11:04.487Z,80.37
2018-10-19T01:13:32.773Z,97.43
2018-10-19T01:16:01.189Z,91.27
2018-10-19T01:18:29.581Z,87.47
2018-10-19T01:20:58.000Z,90.97
2018-10-19T01:23:26.397Z,87.07
2018-10-19T01:25:54.768Z,80.03
2018-10-19T01:28:23.135Z,89.27
2018-10-19T01:30:51.477Z,83.27
2018-10-19T01:33:19.808Z,87.33
2018-10-19T01:35:48.164Z,104.90
2018-10-19T01:38:16.480Z,88.90
2018-10-19T01:40:44.839Z,92.97
2018-10-19T01:43:13.289Z,88.90
2018-10-19T01:45:56.666Z,92.63
2018-10-19T01:48:25.664Z,86.47
2018-10-19T01:50:54.155Z,94.67
2018-10-19T01:53:22.570Z,87.43
2018-10-19T01:55:50.899Z,85.87
2018-10-19T01:58:19.263Z,84.50
2018-10-19T02:00:47.602Z,86.57
2018-10-19T02:03:16.005Z,89.17
2018-10-19T02:05:44.361Z,88.27
2018-10-19T02:08:12.793Z,87.33
2018-10-19T02:10:41.129Z,100.57
2018-10-19T02:13:10.305Z,92.73
2018-10-19T02:15:39.006Z,88.27
2018-10-19T02:18:07.430Z,90.23
2018-10-19T02:20:35.836Z,87.70
2018-10-19T02:23:04.351Z,81.07
2018-10-19T02:25:32.672Z,80.40
2018-10-19T02:28:01.101Z,81.77
2018-10-19T02:30:29.523Z,89.73
2018-10-19T02:32:57.977Z,87.27
2018-10-19T02:35:26.315Z,87.83
2018-10-19T02:37:54.678Z,81.93
2018-10-19T02:40:23.037Z,77.53
2018-10-19T02:42:51.384Z,69.20
2018-10-19T02:45:19.701Z,73.97
2018-10-19T02:47:48.070Z,75.57
2018-10-19T02:50:16.429Z,73.37
2018-10-19T02:52:44.889Z,75.23
2018-10-19T02:55:13.237Z,80.73
2018-10-19T02:57:41.554Z,72.60
2018-10-19T03:00:11.253Z,77.90
2018-10-19T03:02:39.680Z,70.13
2018-10-19T03:05:08.562Z,75.30
2018-10-19T03:07:36.889Z,70.93
2018-10-19T03:10:05.977Z,71.17
2018-10-19T03:12:34.317Z,69.43
2018-10-19T03:15:02.739Z,72.17
2018-10-19T03:17:31.092Z,69.80
2018-10-19T03:19:59.512Z,80.47
2018-10-19T03:22:27.870Z,72.37
2018-10-19T03:24:56.240Z,84.90
2018-10-19T03:27:24.609Z,75.53
2018-10-19T03:29:52.941Z,67.70
2018-10-19T03:32:21.280Z,76.80
2018-10-19T03:34:49.674Z,75.97
2018-10-19T03:37:18.117Z,76.33
2018-10-19T03:39:46.490Z,79.47
2018-10-19T03:42:14.924Z,70.17
2018-10-19T03:44:43.259Z,74.07
2018-10-19T03:47:11.749Z,77.37
2018-10-19T03:49:40.057Z,69.20
2018-10-19T03:52:08.426Z,70.03
2018-10-19T03:54:36.784Z,73.60
2018-10-19T03:57:05.356Z,71.43
2018-10-19T03:59:33.782Z,73.30
2018-10-19T04:02:02.183Z,71.70
2018-10-19T04:04:30.566Z,70.87
2018-10-19T04:06:58.962Z,65.67
2018-10-19T04:09:27.312Z,66.27
2018-10-19T04:11:55.651Z,63.37
2018-10-19T04:14:23.984Z,72.63
2018-10-19T04:16:52.379Z,65.97
2018-10-19T04:19:20.667Z,62.67
2018-10-19T04:21:49.001Z,69.97
2018-10-19T04:24:18.870Z,67.27
2018-10-19T04:26:47.204Z,71.73
2018-10-19T04:29:15.537Z,64.93
2018-10-19T04:31:43.855Z,66.13
2018-10-19T04:34:12.166Z,70.43
2018-10-19T04:36:40.512Z,60.40
2018-10-19T04:39:09.563Z,67.37
2018-10-19T04:41:37.938Z,65.20
2018-10-19T04:44:06.341Z,65.90
2018-10-19T04:46:34.731Z,66.60
2018-10-19T04:49:03.232Z,67.00
2018-10-19T04:51:31.670Z,71.43
2018-10-19T04:53:59.991Z,69.50
2018-10-19T04:56:28.303Z,67.40
2018-10-19T04:58:56.667Z,70.57
2018-10-19T05:01:25.045Z,70.93
2018-10-19T05:03:53.357Z,66.77
2018-10-19T05:06:21.775Z,68.13
2018-10-19T05:08:50.056Z,61.30
2018-10-19T05:11:18.489Z,59.97
2018-10-19T05:13:46.732Z,59.93
2018-10-19T05:16:15.048Z,63.23
2018-10-19T05:18:43.445Z,59.20
2018-10-19T05:21:11.764Z,58.13
2018-10-19T05:23:40.116Z,61.50
2018-10-19T05:26:08.580Z,53.80
2018-10-19T05:28:36.878Z,59.97
2018-10-19T05:31:05.425Z,58.53
2018-10-19T05:33:34.119Z,54.27
2018-10-19T05:36:03.157Z,55.60
2018-10-19T05:38:31.662Z,64.83
2018-10-19T05:41:00.132Z,51.63
2018-10-19T05:43:28.763Z,58.43
2018-10-19T05:45:57.304Z,54.97
2018-10-19T05:48:25.901Z,58.97
2018-10-19T05:50:54.476Z,59.90
2018-10-19T05:53:23.181Z,55.83
2018-10-19T05:55:51.942Z,63.07
2018-10-19T05:58:20.761Z,54.30
2018-10-19T06:00:49.248Z,54.90
2018-10-19T06:03:17.924Z,51.60
2018-10-19T06:05:46.574Z,56.87
2018-10-19T06:08:15.165Z,62.33
2018-10-19T06:10:44.165Z,61.70
2018-10-19T06:13:12.728Z,59.00
2018-10-19T06:15:41.347Z,59.87
2018-10-19T06:18:10.044Z,69.53
2018-10-19T06:20:38.708Z,59.20
2018-10-19T06:23:07.389Z,59.73
2018-10-19T06:25:36.173Z,58.30
2018-10-19T06:28:04.744Z,58.57
2018-10-19T06:30:33.444Z,65.40
2018-10-19T06:33:02.091Z,65.60
2018-10-19T06:35:30.528Z,64.17
2018-10-19T06:37:58.942Z,62.03
2018-10-19T06:40:27.572Z,63.50
2018-10-19T06:42:56.220Z,60.37
2018-10-19T06:45:24.822Z,58.63
2018-10-19T06:47:53.345Z,68.80
2018-10-19T06:50:22.084Z,59.63
2018-10-19T06:52:50.482Z,63.07
2018-10-19T06:55:19.903Z,65.37
2018-10-19T06:57:48.625Z,57.73
2018-10-19T07:00:17.550Z,62.53
2018-10-19T07:02:45.998Z,61.50
2018-10-19T07:05:14.574Z,61.97
2018-10-19T07:07:43.041Z,61.93
2018-10-19T07:10:11.617Z,63.03
2018-10-19T07:12:40.565Z,64.53
2018-10-19T07:15:09.985Z,58.27
2018-10-19T07:17:38.946Z,87.43
2018-10-19T07:20:08.542Z,65.03
2018-10-19T07:22:37.190Z,68.30
2018-10-19T07:25:06.175Z,66.20
2018-10-19T07:27:34.865Z,69.90
2018-10-19T07:30:03.723Z,57.80
2018-10-19T07:32:32.345Z,71.97
2018-10-19T07:35:01.000Z,64.97
2018-10-19T07:37:29.643Z,61.00
2018-10-19T07:39:58.305Z,58.67
2018-10-19T07:42:27.168Z,58.30
2018-10-19T07:44:55.641Z,57.40
2018-10-19T07:47:24.497Z,68.27
2018-10-19T07:49:53.019Z,68.43
2018-10-19T07:52:21.641Z,59.17
2018-10-19T07:54:50.366Z,59.30
2018-10-19T07:57:19.068Z,65.97
2018-10-19T07:59:47.704Z,64.07
2018-10-19T08:02:16.536Z,63.23
2018-10-19T08:04:45.152Z,67.37
2018-10-19T08:07:13.848Z,66.07
2018-10-19T08:09:42.552Z,71.77
2018-10-19T08:12:11.167Z,64.60
2018-10-19T08:14:39.790Z,68.33
2018-10-19T08:17:08.564Z,68.90
2018-10-19T08:19:37.227Z,66.47
2018-10-19T08:22:05.873Z,65.70
2018-10-19T08:24:35.457Z,68.00
2018-10-19T08:27:04.173Z,69.07
2018-10-19T08:29:32.732Z,77.63
2018-10-19T08:32:01.330Z,69.07
2018-10-19T08:34:29.822Z,74.17
2018-10-19T08:36:58.222Z,83.20
2018-10-19T08:39:26.737Z,73.33
2018-10-19T08:41:55.110Z,67.70
2018-10-19T08:44:23.458Z,79.93
2018-10-19T08:46:51.869Z,72.13
2018-10-19T08:49:20.252Z,69.33
2018-10-19T08:51:48.716Z,80.20
2018-10-19T08:54:17.052Z,71.30
2018-10-19T08:56:45.581Z,71.40
2018-10-19T08:59:14.172Z,81.00
2018-10-19T09:01:42.685Z,83.27
2018-10-19T09:04:11.294Z,91.40
2018-10-19T09:06:39.709Z,85.27
2018-10-19T09:09:09.533Z,77.57
2018-10-19T09:11:38.251Z,82.30
2018-10-19T09:14:17.985Z,84.53
2018-10-19T09:16:46.577Z,83.17
2018-10-19T09:19:15.057Z,87.90
2018-10-19T09:21:43.539Z,76.37
2018-10-19T09:24:12.020Z,82.53
2018-10-19T09:26:41.300Z,83.70
2018-10-19T09:29:09.759Z,78.30
2018-10-19T09:31:38.084Z,78.97
2018-10-19T09:34:06.528Z,82.47
2018-10-19T09:36:35.058Z,83.60
2018-10-19T09:39:03.392Z,76.73
2018-10-19T09:41:31.797Z,77.80
2018-10-19T09:44:00.202Z,75.23
2018-10-19T09:46:28.626Z,77.63
2018-10-19T09:48:57.234Z,78.53
2018-10-19T09:51:25.678Z,71.40
2018-10-19T09:53:54.077Z,79.90
2018-10-19T09:56:22.448Z,74.30
2018-10-19T09:58:50.825Z,82.60
2018-10-19T10:01:24.453Z,75.57
2018-10-19T10:03:52.904Z,77.43
2018-10-19T10:06:21.242Z,68.63
2018-10-19T10:08:49.687Z,74.73
2018-10-19T10:11:18.215Z,72.90
2018-10-19T10:13:46.544Z,84.63
2018-10-19T10:16:14.976Z,83.07
2018-10-19T10:18:43.304Z,70.67
2018-10-19T10:21:11.669Z,72.10
2018-10-19T10:23:40.366Z,70.03
2018-10-19T10:26:08.779Z,69.10
2018-10-19T10:28:37.129Z,79.03
2018-10-19T10:31:05.934Z,64.10
2018-10-19T10:33:34.320Z,67.87
2018-10-19T10:36:02.852Z,72.97
2018-10-19T10:38:31.313Z,67.20
2018-10-19T10:40:59.733Z,61.53
2018-10-19T10:43:28.077Z,63.37
2018-10-19T10:45:56.441Z,72.17
2018-10-19T10:48:24.849Z,65.20
2018-10-19T10:50:53.555Z,66.03
2018-10-19T10:53:21.893Z,62.53
2018-10-19T10:55:50.297Z,58.27
2018-10-19T10:58:18.648Z,67.27
2018-10-19T11:00:46.999Z,60.60
2018-10-19T11:03:15.338Z,55.90
2018-10-19T11:05:43.694Z,60.53
2018-10-19T11:08:12.016Z,73.13
2018-10-19T11:10:41.277Z,62.20
2018-10-19T11:13:09.689Z,58.40
2018-10-19T11:15:37.991Z,57.97
2018-10-19T11:18:06.583Z,68.47
2018-10-19T11:20:34.997Z,54.90
2018-10-19T11:23:03.572Z,52.30
2018-10-19T11:25:31.921Z,56.73
2018-10-19T11:28:00.285Z,49.40
2018-10-19T11:30:29.426Z,52.33
2018-10-19T11:32:57.785Z,47.47
2018-10-19T11:35:26.147Z,52.73
2018-10-19T11:37:54.612Z,51.23
2018-10-19T11:40:35.357Z,54.67
2018-10-19T11:43:03.803Z,50.37
2018-10-19T11:45:33.059Z,55.17
2018-10-19T11:48:01.413Z,48.37
2018-10-19T11:50:29.845Z,46.50
2018-10-19T11:52:58.238Z,49.13
2018-10-19T11:55:26.688Z,45.40
2018-10-19T11:57:55.077Z,42.53
2018-10-19T12:00:24.269Z,42.60
2018-10-19T12:02:52.667Z,42.97
2018-10-19T12:05:20.989Z,47.03
2018-10-19T12:07:49.444Z,43.70
2018-10-19T12:10:17.837Z,40.80
2018-10-19T12:12:46.152Z,38.70
2018-10-19T12:15:15.795Z,40.43
2018-10-19T12:17:44.703Z,39.40
2018-10-19T12:20:16.284Z,43.10
2018-10-19T12:22:44.666Z,40.43
2018-10-19T12:25:13.990Z,41.90
2018-10-19T12:27:42.600Z,44.50
2018-10-19T12:30:11.685Z,43.93
2018-10-19T12:32:40.345Z,39.60
2018-10-19T12:35:10.477Z,46.33
2018-10-19T12:37:38.955Z,43.00
2018-10-19T12:40:07.924Z,46.63
2018-10-19T12:42:36.512Z,42.07
2018-10-19T12:45:05.847Z,36.80
2018-10-19T12:47:37.075Z,37.30
2018-10-19T12:50:05.765Z,40.97
2018-10-19T12:52:34.124Z,33.90
2018-10-19T12:55:02.508Z,37.90
2018-10-19T12:57:30.911Z,40.77
2018-10-19T12:59:59.289Z,42.97
2018-10-19T13:02:27.649Z,36.87
2018-10-19T13:04:55.989Z,44.10
2018-10-19T13:07:24.529Z,37.73
2018-10-19T13:09:52.956Z,39.40
2018-10-19T13:12:21.309Z,39.97
2018-10-19T13:14:49.708Z,36.17
2018-10-19T13:17:18.012Z,34.23
2018-10-19T13:19:46.387Z,40.00
2018-10-19T13:22:14.734Z,37.40
2018-10-19T13:24:43.164Z,40.63
2018-10-19T13:27:11.674Z,43.30
2018-10-19T13:29:39.969Z,38.50
2018-10-19T13:32:08.340Z,44.07
2018-10-19T13:34:36.687Z,41.27
2018-10-19T13:37:05.117Z,33.17
2018-10-19T13:39:33.462Z,40.93
2018-10-19T13:42:01.843Z,39.83
2018-10-19T13:44:30.168Z,48.53
2018-10-19T13:46:58.613Z,40.57
2018-10-19T13:49:26.951Z,41.03
2018-10-19T13:51:55.344Z,38.43
2018-10-19T13:54:23.763Z,41.67
2018-10-19T13:56:52.135Z,41.13
2018-10-19T13:59:20.501Z,40.23
2018-10-19T14:01:48.844Z,43.97
2018-10-19T14:04:17.238Z,39.50
2018-10-19T14:06:45.553Z,41.83
2018-10-19T14:09:13.957Z,39.40
2018-10-19T14:11:42.291Z,46.37
2018-10-19T14:14:10.680Z,47.20
2018-10-19T14:16:39.076Z,37.90
2018-10-19T14:19:07.581Z,47.07
2018-10-19T14:21:35.962Z,41.20
2018-10-19T14:24:04.356Z,36.20
2018-10-19T14:26:32.859Z,41.77
2018-10-19T14:29:01.264Z,42.13
2018-10-19T14:31:29.597Z,39.70
2018-10-19T14:33:57.985Z,44.43
2018-10-19T14:36:26.401Z,40.03
2018-10-19T14:38:54.818Z,38.83
2018-10-19T14:41:23.313Z,38.73
2018-10-19T14:43:51.770Z,41.57
2018-10-19T14:46:20.153Z,38.83
2018-10-19T14:48:48.583Z,41.47
2018-10-19T14:51:17.049Z,47.07
2018-10-19T14:53:45.296Z,46.97
2018-10-19T14:56:13.624Z,42.10
2018-10-19T14:58:41.990Z,44.73
2018-10-19T15:01:10.461Z,48.37
2018-10-19T15:03:38.891Z,42.13
2018-10-19T15:06:07.285Z,40.27
2018-10-19T15:08:35.671Z,41.77
2018-10-19T15:11:04.520Z,46.30
2018-10-19T15:13:32.606Z,49.20
2018-10-19T15:16:01.005Z,44.87
2018-10-19T15:18:29.465Z,43.93
2018-10-19T15:20:57.771Z,42.90
2018-10-19T15:23:26.168Z,49.53
2018-10-19T15:25:54.568Z,49.33
2018-10-19T15:28:22.967Z,44.90
2018-10-19T15:30:51.363Z,41.23
2018-10-19T15:33:19.744Z,46.47
2018-10-19T15:35:48.183Z,47.97
2018-10-19T15:38:16.568Z,46.53
2018-10-19T15:40:45.137Z,48.80
2018-10-19T15:43:13.804Z,43.70
2018-10-19T15:45:42.147Z,46.20
2018-10-19T15:48:10.659Z,41.30
2018-10-19T15:50:39.035Z,44.43
2018-10-19T15:53:07.524Z,42.80
2018-10-19T15:55:35.881Z,51.20
2018-10-19T15:58:04.288Z,46.07
2018-10-19T16:00:32.716Z,44.67
2018-10-19T16:03:01.111Z,44.67
2018-10-19T16:05:29.536Z,40.93
2018-10-19T16:07:57.867Z,54.10
2018-10-19T16:10:26.273Z,53.73
2018-10-19T16:12:54.639Z,50.60
2018-10-19T16:15:23.016Z,51.00
2018-10-19T16:17:51.396Z,46.27
2018-10-19T16:20:19.794Z,46.37
2018-10-19T16:22:48.148Z,53.27
2018-10-19T16:25:16.509Z,50.40
2018-10-19T16:27:44.916Z,54.80
2018-10-19T16:30:13.333Z,49.10
2018-10-19T16:32:41.678Z,54.07
2018-10-19T16:35:10.092Z,49.70
2018-10-19T16:37:38.613Z,51.03
2018-10-19T16:40:07.268Z,48.30
2018-10-19T16:42:35.778Z,47.03
2018-10-19T16:45:04.429Z,48.27
2018-10-19T16:47:33.230Z,50.90
2018-10-19T16:50:01.687Z,44.70
2018-10-19T16:52:30.129Z,47.23
2018-10-19T16:54:58.671Z,43.63
2018-10-19T16:57:27.263Z,43.93
2018-10-19T16:59:55.781Z,44.33
2018-10-19T17:02:24.295Z,43.37
2018-10-19T17:04:52.872Z,45.10
2018-10-19T17:07:21.137Z,53.43
2018-10-19T17:09:49.908Z,44.70
2018-10-19T17:12:18.476Z,44.67
2018-10-19T17:14:46.880Z,49.53
2018-10-19T17:17:15.213Z,40.53
2018-10-19T17:19:43.696Z,45.23
2018-10-19T17:22:12.160Z,57.17
2018-10-19T17:24:40.608Z,41.33
2018-10-19T17:27:09.125Z,51.73
2018-10-19T17:29:37.505Z,46.20
2018-10-19T17:32:05.910Z,48.20
2018-10-19T17:34:34.403Z,45.60
2018-10-19T17:37:02.871Z,42.30
2018-10-19T17:39:31.210Z,43.50
2018-10-19T17:41:59.708Z,51.30
2018-10-19T17:44:28.023Z,58.50
2018-10-19T17:46:56.470Z,67.40
2018-10-19T17:49:24.851Z,55.10
2018-10-19T17:51:53.261Z,64.07
2018-10-19T17:54:21.822Z,64.23
2018-10-19T17:56:50.168Z,59.70
2018-10-19T17:59:18.542Z,54.83
2018-10-19T18:01:47.117Z,72.50
2018-10-19T18:04:15.516Z,65.17
2018-10-19T18:06:43.996Z,51.60
2018-10-19T18:09:12.888Z,56.97
2018-10-19T18:11:41.353Z,56.87
2018-10-19T18:14:09.756Z,53.10
2018-10-19T18:16:38.148Z,52.57
2018-10-19T18:19:06.601Z,55.43
2018-10-19T18:21:35.202Z,60.40
2018-10-19T18:24:03.659Z,56.17
2018-10-19T18:26:32.192Z,54.00
2018-10-19T18:29:00.656Z,58.57
2018-10-19T18:31:29.073Z,58.60
2018-10-19T18:33:57.530Z,58.57
2018-10-19T18:36:25.880Z,64.63
2018-10-19T18:38:54.315Z,61.37
2018-10-19T18:41:22.710Z,63.40
2018-10-19T18:43:51.098Z,57.80
2018-10-19T18:46:19.622Z,63.00
2018-10-19T18:48:47.996Z,63.10
2018-10-19T18:51:17.267Z,66.33
2018-10-19T18:53:45.653Z,64.40
2018-10-19T18:56:14.219Z,65.60
2018-10-19T18:58:43.159Z,61.77
2018-10-19T19:01:11.599Z,56.07
2018-10-19T19:03:40.478Z,61.27
2018-10-19T19:06:09.055Z,56.27
2018-10-19T19:08:37.794Z,63.97
2018-10-19T19:11:06.322Z,62.97
2018-10-19T19:13:38.932Z,56.70
2018-10-19T19:16:11.690Z,63.37
2018-10-19T19:18:40.302Z,63.60
2018-10-19T19:21:08.680Z,60.63
2018-10-19T19:23:42.564Z,65.43
2018-10-19T19:26:12.078Z,64.73
2018-10-19T19:28:40.527Z,65.57
2018-10-19T19:31:08.958Z,65.20
2018-10-19T19:33:42.917Z,68.77
2018-10-19T19:36:11.361Z,74.67
2018-10-19T19:38:39.772Z,67.83
2018-10-19T19:41:13.774Z,61.50
2018-10-19T19:43:42.229Z,64.30
2018-10-19T19:46:10.869Z,64.70
2018-10-19T19:48:44.709Z,70.03
2018-10-19T19:51:13.402Z,65.27
2018-10-19T19:53:42.157Z,65.80
2018-10-19T19:56:11.084Z,62.83
2018-10-19T19:58:39.782Z,70.00
2018-10-19T20:01:09.248Z,66.40
2018-10-19T20:03:37.837Z,68.10
2018-10-19T20:06:08.046Z,69.17
2018-10-19T20:08:37.322Z,69.90
2018-10-19T20:11:06.491Z,62.37
2018-10-19T20:13:35.333Z,74.73
2018-10-19T20:16:03.888Z,60.87
2018-10-19T20:18:32.786Z,81.07
2018-10-19T20:21:01.568Z,64.63
2018-10-19T20:23:31.485Z,71.97
2018-10-19T20:26:04.417Z,63.23
2018-10-19T20:28:33.380Z,67.10
2018-10-19T20:31:03.539Z,64.87
2018-10-19T20:33:32.346Z,64.30
2018-10-19T20:36:02.251Z,73.67
2018-10-19T20:38:32.147Z,69.97
2018-10-19T20:41:01.324Z,70.30
2018-10-19T20:43:30.049Z,66.83
2018-10-19T20:45:58.551Z,69.77
2018-10-19T20:48:27.575Z,80.00
2018-10-19T20:50:55.987Z,78.13
2018-10-19T20:53:24.581Z,68.37
2018-10-19T20:55:53.252Z,72.63
2018-10-19T20:58:21.748Z,74.57
2018-10-19T21:00:50.266Z,73.03
2018-10-19T21:03:19.058Z,70.23
2018-10-19T21:05:47.986Z,64.93
2018-10-19T21:08:16.465Z,76.63
2018-10-19T21:10:45.189Z,77.50
2018-10-19T21:13:13.594Z,70.10
2018-10-19T21:15:42.021Z,72.20
2018-10-19T21:18:10.388Z,70.30
2018-10-19T21:20:38.792Z,74.57
2018-10-19T21:23:07.453Z,73.77
2018-10-19T21:25:35.861Z,70.67
2018-10-19T21:28:04.304Z,76.40
2018-10-19T21:30:32.729Z,73.87
2018-10-19T21:33:01.138Z,76.20
2018-10-19T21:35:29.555Z,74.50
2018-10-19T21:37:57.941Z,67.13
2018-10-19T21:40:26.330Z,73.93
2018-10-19T21:42:54.688Z,69.43
2018-10-19T21:45:23.183Z,69.83
2018-10-19T21:47:51.580Z,65.47
2018-10-19T21:50:22.404Z,71.83
2018-10-19T21:52:51.518Z,75.10
2018-10-19T21:55:19.875Z,66.80
2018-10-19T21:57:48.245Z,64.37
2018-10-19T22:00:16.616Z,71.23
2018-10-19T22:02:44.987Z,72.00
2018-10-19T22:05:13.438Z,79.63
2018-10-19T22:07:41.832Z,70.23
2018-10-19T22:10:10.720Z,77.30
2018-10-19T22:12:39.058Z,71.60
2018-10-19T22:15:07.773Z,74.03
2018-10-19T22:17:36.245Z,80.27
2018-10-19T22:20:04.665Z,82.77
2018-10-19T22:22:33.065Z,69.37
2018-10-19T22:25:01.480Z,87.23
2018-10-19T22:27:29.796Z,76.57
2018-10-19T22:29:58.158Z,70.63
2018-10-19T22:32:26.495Z,76.93
2018-10-19T22:34:54.900Z,65.30
2018-10-19T22:37:23.289Z,79.73
2018-10-19T22:39:51.612Z,77.40
2018-10-19T22:42:19.970Z,77.50
2018-10-19T22:44:48.383Z,86.80
2018-10-19T22:47:16.772Z,89.47
2018-10-19T22:49:45.067Z,79.43
2018-10-19T22:52:13.443Z,73.47
2018-10-19T22:54:41.796Z,70.80
2018-10-19T22:57:10.165Z,67.73
2018-10-19T22:59:38.480Z,70.80
2018-10-19T23:02:06.864Z,70.33
2018-10-19T23:04:35.299Z,71.30
2018-10-19T23:07:03.654Z,70.23
2018-10-19T23:09:32.000Z,68.20
2018-10-19T23:12:00.371Z,70.83
2018-10-19T23:14:28.759Z,79.40
2018-10-19T23:16:57.144Z,73.57
2018-10-19T23:19:25.472Z,66.93
2018-10-19T23:21:53.848Z,74.03
2018-10-19T23:24:22.181Z,72.60
2018-10-19T23:26:50.595Z,74.03
2018-10-19T23:29:18.956Z,72.37
2018-10-19T23:31:47.304Z,72.47
2018-10-19T23:34:15.798Z,70.83
2018-10-19T23:36:44.136Z,73.07
2018-10-19T23:39:12.965Z,77.20
2018-10-19T23:41:41.650Z,71.60
2018-10-19T23:44:10.371Z,68.87
2018-10-19T23:46:38.746Z,69.17
2018-10-19T23:49:07.424Z,77.33
2018-10-19T23:51:35.741Z,68.47
2018-10-19T23:54:04.125Z,66.17
2018-10-19T23:56:32.519Z,73.77
2018-10-19T23:59:00.910Z,77.77
